createdAt,value
2023-02-17T00:01:14.483Z,100373.88
2023-02-17T00:03:48.393Z,100369.20
2023-02-17T00:06:22.224Z,100369.09
2023-02-17T00:08:54.884Z,100370.27
2023-02-17T00:11:28.502Z,100371.93
2023-02-17T00:14:01.051Z,100365.83
2023-02-17T00:16:33.204Z,100363.19
2023-02-17T00:19:25.040Z,100359.05
2023-02-17T00:21:59.660Z,100351.45
2023-02-17T00:24:33.788Z,100350.23
2023-02-17T00:27:06.119Z,100346.83
2023-02-17T00:29:38.627Z,100345.70
2023-02-17T00:32:11.565Z,100345.86
2023-02-17T00:34:44.089Z,100343.05
2023-02-17T00:37:16.337Z,100336.85
2023-02-17T00:39:48.539Z,100333.83
2023-02-17T00:42:24.255Z,100328.13
2023-02-17T00:45:11.432Z,100327.31
2023-02-17T00:47:43.543Z,100326.21
2023-02-17T00:50:15.828Z,100326.61
2023-02-17T00:52:48.161Z,100328.92
2023-02-17T00:55:20.577Z,100327.42
2023-02-17T00:57:53.799Z,100319.21
2023-02-17T01:00:26.456Z,100319.91
2023-02-17T01:02:58.665Z,100324.47
2023-02-17T01:05:31.116Z,100319.04
2023-02-17T01:08:03.399Z,100315.44
2023-02-17T01:10:37.310Z,100310.58
2023-02-17T01:13:10.536Z,100313.53
2023-02-17T01:15:44.031Z,100308.25
2023-02-17T01:18:20.089Z,100301.91
2023-02-17T01:20:52.721Z,100293.48
2023-02-17T01:23:25.303Z,100298.52
2023-02-17T01:25:59.151Z,100300.38
2023-02-17T01:28:32.523Z,100302.98
2023-02-17T01:31:09.932Z,100301.85
2023-02-17T01:33:43.437Z,100300.76
2023-02-17T01:36:20.239Z,100296.94
2023-02-17T01:38:52.914Z,100291.32
2023-02-17T01:41:27.835Z,100286.83
2023-02-17T01:44:09.105Z,100277.88
2023-02-17T01:46:44.889Z,100275.48
2023-02-17T01:49:25.138Z,100279.49
2023-02-17T01:52:03.282Z,100279.58
2023-02-17T01:54:42.533Z,100277.00
2023-02-17T01:57:18.005Z,100271.20
2023-02-17T01:59:51.859Z,100266.21
2023-02-17T02:02:24.838Z,100264.46
2023-02-17T02:04:57.141Z,100261.37
2023-02-17T02:07:33.051Z,100259.27
2023-02-17T02:10:06.221Z,100255.95
2023-02-17T02:12:42.563Z,100256.36
2023-02-17T02:15:17.981Z,100254.64
2023-02-17T02:18:04.618Z,100255.59
2023-02-17T02:21:04.432Z,100252.52
2023-02-17T02:24:00.175Z,100251.25
2023-02-17T02:26:44.659Z,100249.48
2023-02-17T02:29:57.343Z,100242.85
2023-02-17T02:32:46.006Z,100242.52
2023-02-17T02:35:22.097Z,100235.02
2023-02-17T02:38:00.481Z,100231.92
2023-02-17T02:40:37.924Z,100231.42
2023-02-17T02:43:10.717Z,100230.55
2023-02-17T02:45:42.978Z,100223.66
2023-02-17T02:48:15.229Z,100221.78
2023-02-17T02:51:02.851Z,100223.87
2023-02-17T02:54:01.037Z,100215.40
2023-02-17T02:56:48.149Z,100214.55
2023-02-17T02:59:34.891Z,100214.81
2023-02-17T03:02:14.401Z,100211.97
2023-02-17T03:04:52.406Z,100209.17
2023-02-17T03:07:29.644Z,100202.53
2023-02-17T03:10:02.921Z,100200.40
2023-02-17T03:12:37.440Z,100199.08
2023-02-17T03:15:16.874Z,100198.30
2023-02-17T03:17:49.257Z,100198.45
2023-02-17T03:20:22.059Z,100198.92
2023-02-17T03:22:54.854Z,100195.77
2023-02-17T03:25:27.240Z,100194.58
2023-02-17T03:27:59.685Z,100195.74
2023-02-17T03:30:32.230Z,100196.02
2023-02-17T03:33:04.617Z,100193.34
2023-02-17T03:35:36.829Z,100197.75
2023-02-17T03:38:08.973Z,100191.93
2023-02-17T03:40:41.295Z,100189.81
2023-02-17T03:43:13.514Z,100189.67
2023-02-17T03:45:45.852Z,100188.78
2023-02-17T03:48:18.081Z,100186.70
2023-02-17T03:50:50.413Z,100183.87
2023-02-17T03:53:22.678Z,100180.35
2023-02-17T03:55:55.000Z,100176.41
2023-02-17T03:58:27.215Z,100173.48
2023-02-17T04:00:59.538Z,100170.34
2023-02-17T04:03:32.086Z,100171.95
2023-02-17T04:06:05.034Z,100168.02
2023-02-17T04:08:37.810Z,100165.51
2023-02-17T04:11:11.609Z,100163.52
2023-02-17T04:13:43.753Z,100161.49
2023-02-17T04:16:16.081Z,100154.10
2023-02-17T04:18:48.293Z,100148.02
2023-02-17T04:21:20.672Z,100141.14
2023-02-17T04:23:54.628Z,100137.66
2023-02-17T04:26:26.948Z,100137.06
2023-02-17T04:28:59.450Z,100135.11
2023-02-17T04:31:31.819Z,100131.77
2023-02-17T04:34:04.170Z,100126.23
2023-02-17T04:36:36.960Z,100118.55
2023-02-17T04:39:09.171Z,100112.36
2023-02-17T04:41:41.346Z,100108.86
2023-02-17T04:44:13.610Z,100110.64
2023-02-17T04:46:45.828Z,100108.41
2023-02-17T04:49:18.021Z,100109.46
2023-02-17T04:51:50.346Z,100104.65
2023-02-17T04:54:23.488Z,100102.64
2023-02-17T04:56:55.683Z,100105.50
2023-02-17T04:59:28.033Z,100101.75
2023-02-17T05:02:00.220Z,100098.40
2023-02-17T05:04:32.536Z,100103.76
2023-02-17T05:07:04.839Z,100104.65
2023-02-17T05:09:37.263Z,100107.86
2023-02-17T05:12:09.869Z,100106.23
2023-02-17T05:14:42.144Z,100110.09
2023-02-17T05:17:14.282Z,100103.17
2023-02-17T05:19:46.507Z,100100.40
2023-02-17T05:22:18.901Z,100101.45
2023-02-17T05:24:51.144Z,100098.68
2023-02-17T05:27:23.745Z,100103.08
2023-02-17T05:29:55.995Z,100099.34
2023-02-17T05:32:28.341Z,100101.66
2023-02-17T05:35:00.509Z,100100.16
2023-02-17T05:37:32.676Z,100102.73
2023-02-17T05:40:05.485Z,100102.59
2023-02-17T05:42:37.683Z,100104.23
2023-02-17T05:45:12.460Z,100095.78
2023-02-17T05:47:44.581Z,100092.08
2023-02-17T05:50:17.064Z,100088.39
2023-02-17T05:52:49.323Z,100086.55
2023-02-17T05:55:22.311Z,100084.54
2023-02-17T05:57:54.496Z,100082.08
2023-02-17T06:00:27.411Z,100080.00
2023-02-17T06:02:59.895Z,100076.66
2023-02-17T06:05:32.368Z,100077.21
2023-02-17T06:08:04.716Z,100074.09
2023-02-17T06:10:36.897Z,100073.56
2023-02-17T06:13:09.323Z,100076.13
2023-02-17T06:15:41.888Z,100076.45
2023-02-17T06:18:14.106Z,100070.10
2023-02-17T06:20:46.405Z,100066.33
2023-02-17T06:23:18.630Z,100068.13
2023-02-17T06:25:50.842Z,100061.64
2023-02-17T06:28:23.063Z,100057.80
2023-02-17T06:30:55.365Z,100056.34
2023-02-17T06:33:27.884Z,100055.77
2023-02-17T06:36:00.106Z,100056.77
2023-02-17T06:38:32.345Z,100052.98
2023-02-17T06:41:04.669Z,100053.92
2023-02-17T06:43:36.894Z,100054.55
2023-02-17T06:46:09.688Z,100055.50
2023-02-17T06:48:42.118Z,100059.25
2023-02-17T06:51:14.413Z,100061.83
2023-02-17T06:53:47.079Z,100058.23
2023-02-17T06:56:21.097Z,100057.83
2023-02-17T06:58:54.019Z,100060.67
2023-02-17T07:01:27.569Z,100058.73
2023-02-17T07:04:00.135Z,100059.66
2023-02-17T07:06:32.392Z,100058.44
2023-02-17T07:09:05.286Z,100054.63
2023-02-17T07:11:37.534Z,100057.66
2023-02-17T07:14:09.863Z,100060.89
2023-02-17T07:16:42.062Z,100059.27
2023-02-17T07:19:14.464Z,100055.69
2023-02-17T07:21:47.246Z,100054.42
2023-02-17T07:24:19.544Z,100051.80
2023-02-17T07:26:53.860Z,100056.83
2023-02-17T07:29:26.088Z,100054.92
2023-02-17T07:31:58.303Z,100054.75
2023-02-17T07:34:30.585Z,100052.83
2023-02-17T07:37:02.841Z,100052.61
2023-02-17T07:39:35.289Z,100051.23
2023-02-17T07:42:07.567Z,100052.00
2023-02-17T07:44:39.854Z,100051.39
2023-02-17T07:47:11.957Z,100050.44
2023-02-17T07:49:44.271Z,100048.05
2023-02-17T07:52:19.674Z,100047.80
2023-02-17T07:54:51.824Z,100048.86
2023-02-17T07:57:23.996Z,100046.38
2023-02-17T07:59:56.295Z,100045.10
2023-02-17T08:02:28.512Z,100046.17
2023-02-17T08:05:01.736Z,100046.56
2023-02-17T08:07:34.076Z,100041.60
2023-02-17T08:10:24.985Z,100038.61
2023-02-17T08:13:15.303Z,100036.10
2023-02-17T08:15:47.456Z,100035.48
2023-02-17T08:18:19.667Z,100035.73
2023-02-17T08:20:52.499Z,100034.06
2023-02-17T08:23:24.779Z,100029.91
2023-02-17T08:25:59.872Z,100025.98
2023-02-17T08:28:32.808Z,100028.38
2023-02-17T08:31:05.286Z,100019.31
2023-02-17T08:33:37.541Z,100017.02
2023-02-17T08:36:11.632Z,100005.66
2023-02-17T08:38:48.635Z,99998.66
2023-02-17T08:41:24.496Z,99988.63
2023-02-17T08:43:57.020Z,99987.67
2023-02-17T08:46:30.234Z,99987.11
2023-02-17T08:49:02.762Z,99983.71
2023-02-17T08:51:35.108Z,99982.23
2023-02-17T08:54:10.428Z,99979.55
2023-02-17T08:56:43.567Z,99973.15
2023-02-17T08:59:18.035Z,99968.76
2023-02-17T09:01:50.950Z,99968.95
2023-02-17T09:04:23.327Z,99966.38
2023-02-17T09:06:58.551Z,99961.61
2023-02-17T09:09:32.677Z,99959.99
2023-02-17T09:12:05.412Z,99961.20
2023-02-17T09:14:37.831Z,99958.40
2023-02-17T09:17:11.282Z,99954.69
2023-02-17T09:19:43.806Z,99947.39
2023-02-17T09:22:30.825Z,99945.64
2023-02-17T09:25:04.127Z,99945.67
2023-02-17T09:27:36.654Z,99944.23
2023-02-17T09:30:11.412Z,99939.21
2023-02-17T09:32:45.209Z,99938.98
2023-02-17T09:35:19.307Z,99940.12
2023-02-17T09:37:52.016Z,99940.04
2023-02-17T09:40:29.469Z,99936.27
2023-02-17T09:43:02.699Z,99938.46
2023-02-17T09:45:37.530Z,99931.60
2023-02-17T09:48:13.266Z,99924.80
2023-02-17T09:50:51.996Z,99918.62
2023-02-17T09:53:32.899Z,99909.81
2023-02-17T09:56:10.784Z,99910.35
2023-02-17T09:58:47.966Z,99908.26
2023-02-17T10:01:22.786Z,99907.67
2023-02-17T10:03:58.845Z,99903.31
2023-02-17T10:06:35.181Z,99900.20
2023-02-17T10:09:13.214Z,99895.70
2023-02-17T10:11:49.836Z,99887.61
2023-02-17T10:14:29.002Z,99880.66
2023-02-17T10:17:08.265Z,99876.73
2023-02-17T10:19:51.965Z,99866.95
2023-02-17T10:22:25.539Z,99868.33
2023-02-17T10:24:58.348Z,99862.48
2023-02-17T10:27:43.305Z,99859.88
2023-02-17T10:30:34.085Z,99854.18
2023-02-17T10:33:22.290Z,99849.30
2023-02-17T10:35:59.309Z,99847.78
2023-02-17T10:38:42.457Z,99836.84
2023-02-17T10:41:18.892Z,99831.86
2023-02-17T10:43:51.879Z,99828.17
2023-02-17T10:46:29.876Z,99819.58
2023-02-17T10:49:02.874Z,99813.46
2023-02-17T10:51:35.299Z,99813.07
2023-02-17T10:54:17.885Z,99804.90
2023-02-17T10:56:53.483Z,99804.42
2023-02-17T10:59:29.875Z,99801.83
2023-02-17T11:02:15.595Z,99796.05
2023-02-17T11:04:49.427Z,99784.35
2023-02-17T11:07:28.244Z,99784.77
2023-02-17T11:10:04.637Z,99777.55
2023-02-17T11:12:42.666Z,99770.42
2023-02-17T11:15:19.827Z,99759.75
2023-02-17T11:17:52.588Z,99747.91
2023-02-17T11:20:37.157Z,99740.41
2023-02-17T11:23:24.704Z,99736.10
2023-02-17T11:26:19.421Z,99724.83
2023-02-17T11:28:51.999Z,99720.91
2023-02-17T11:31:29.272Z,99707.14
2023-02-17T11:34:11.824Z,99691.67
2023-02-17T11:36:47.261Z,99678.34
2023-02-17T11:39:24.149Z,99673.98
2023-02-17T11:41:57.781Z,99672.17
2023-02-17T11:44:31.051Z,99671.12
2023-02-17T11:47:11.281Z,99665.16
2023-02-17T11:50:11.919Z,99663.05
2023-02-17T11:53:01.242Z,99652.45
2023-02-17T11:55:44.206Z,99646.36
2023-02-17T11:58:30.222Z,99642.15
2023-02-17T12:01:15.421Z,99635.09
2023-02-17T12:04:09.610Z,99630.30
2023-02-17T12:06:53.164Z,99632.15
2023-02-17T12:09:30.917Z,99622.95
2023-02-17T12:12:13.321Z,99617.11
2023-02-17T12:15:08.636Z,99604.92
2023-02-17T12:17:52.909Z,99597.54
2023-02-17T12:20:38.516Z,99591.48
2023-02-17T12:23:25.891Z,99591.83
2023-02-17T12:26:04.767Z,99584.86
2023-02-17T12:29:00.289Z,99579.71
2023-02-17T12:31:50.571Z,99571.18
2023-02-17T12:34:27.047Z,99561.55
2023-02-17T12:37:00.544Z,99558.88
2023-02-17T12:39:39.781Z,99554.89
2023-02-17T12:42:17.868Z,99547.33
2023-02-17T12:44:55.214Z,99539.55
2023-02-17T12:47:32.443Z,99528.89
2023-02-17T12:50:16.614Z,99517.59
2023-02-17T12:52:53.568Z,99510.36
2023-02-17T12:55:31.780Z,99506.59
2023-02-17T12:58:08.026Z,99505.88
2023-02-17T13:00:44.929Z,99501.13
2023-02-17T13:03:17.404Z,99494.60
2023-02-17T13:06:00.017Z,99495.60
2023-02-17T13:08:38.607Z,99487.58
2023-02-17T13:11:15.408Z,99483.39
2023-02-17T13:13:47.654Z,99476.54
2023-02-17T13:16:20.215Z,99466.23
2023-02-17T13:18:53.706Z,99461.69
2023-02-17T13:21:34.812Z,99455.02
2023-02-17T13:24:14.058Z,99455.66
2023-02-17T13:26:46.752Z,99449.50
2023-02-17T13:29:36.747Z,99445.62
2023-02-17T13:32:13.468Z,99440.70
2023-02-17T13:34:47.062Z,99437.69
2023-02-17T13:37:28.279Z,99433.80
2023-02-17T13:40:01.536Z,99424.33
2023-02-17T13:42:39.928Z,99424.98
2023-02-17T13:45:22.309Z,99420.06
2023-02-17T13:47:56.456Z,99416.11
2023-02-17T13:50:43.838Z,99411.83
2023-02-17T13:53:29.470Z,99408.86
2023-02-17T13:56:03.946Z,99402.86
2023-02-17T13:58:37.783Z,99394.89
2023-02-17T14:01:16.731Z,99390.29
2023-02-17T14:03:51.878Z,99382.95
2023-02-17T14:06:29.496Z,99377.96
2023-02-17T14:09:02.047Z,99368.31
2023-02-17T14:11:34.500Z,99365.89
2023-02-17T14:14:09.017Z,99363.91
2023-02-17T14:16:44.210Z,99357.05
2023-02-17T14:19:18.223Z,99343.84
2023-02-17T14:22:01.987Z,99333.75
2023-02-17T14:24:36.101Z,99321.94
2023-02-17T14:27:09.964Z,99312.73
2023-02-17T14:29:44.636Z,99305.70
2023-02-17T14:32:35.037Z,99301.08
2023-02-17T14:35:24.603Z,99288.85
2023-02-17T14:37:57.231Z,99277.80
2023-02-17T14:40:29.553Z,99265.45
2023-02-17T14:43:01.762Z,99256.66
2023-02-17T14:45:33.996Z,99252.79
2023-02-17T14:48:06.935Z,99244.87
2023-02-17T14:50:42.611Z,99236.52
2023-02-17T14:53:20.335Z,99229.85
2023-02-17T14:55:57.502Z,99218.30
2023-02-17T14:58:31.383Z,99214.33
2023-02-17T15:01:03.931Z,99211.70
2023-02-17T15:03:36.072Z,99206.89
2023-02-17T15:06:12.921Z,99197.24
2023-02-17T15:08:49.347Z,99188.36
2023-02-17T15:11:29.043Z,99185.58
2023-02-17T15:14:02.978Z,99177.23
2023-02-17T15:16:35.629Z,99174.60
2023-02-17T15:19:07.823Z,99165.45
2023-02-17T15:21:44.229Z,99159.16
2023-02-17T15:24:19.143Z,99150.70
2023-02-17T15:26:49.906Z,99150.81
2023-02-17T15:29:24.636Z,99148.16
2023-02-17T15:31:58.926Z,99144.73
2023-02-17T15:34:33.978Z,99146.85
2023-02-17T15:37:06.189Z,99143.39
2023-02-17T15:39:38.349Z,99137.02
2023-02-17T15:42:15.316Z,99130.40
2023-02-17T15:44:50.017Z,99130.23
2023-02-17T15:47:22.839Z,99124.20
2023-02-17T15:49:55.071Z,99120.24
2023-02-17T15:52:27.333Z,99113.27
2023-02-17T15:55:00.462Z,99104.50
2023-02-17T15:57:32.737Z,99097.69
2023-02-17T16:00:06.278Z,99095.41
2023-02-17T16:02:38.922Z,99092.07
2023-02-17T16:05:13.216Z,99083.67
2023-02-17T16:07:45.826Z,99081.37
2023-02-17T16:10:21.313Z,99073.77
2023-02-17T16:12:56.578Z,99074.23
2023-02-17T16:15:29.695Z,99071.77
2023-02-17T16:18:01.895Z,99060.95
2023-02-17T16:20:35.509Z,99062.20
2023-02-17T16:23:07.641Z,99055.22
2023-02-17T16:25:39.886Z,99041.09
2023-02-17T16:28:15.690Z,99038.97
2023-02-17T16:30:49.591Z,99032.02
2023-02-17T16:33:21.945Z,99028.54
2023-02-17T16:35:54.237Z,99023.34
2023-02-17T16:38:26.881Z,99024.15
2023-02-17T16:40:59.062Z,99027.20
2023-02-17T16:43:31.331Z,99010.96
2023-02-17T16:46:06.355Z,99005.04
2023-02-17T16:48:43.404Z,99002.05
2023-02-17T16:51:15.646Z,98995.09
2023-02-17T16:53:47.823Z,98988.44
2023-02-17T16:56:24.287Z,98986.56
2023-02-17T16:58:56.474Z,98978.89
2023-02-17T17:01:28.744Z,98969.02
2023-02-17T17:04:00.951Z,98962.22
2023-02-17T17:06:33.182Z,98959.23
2023-02-17T17:09:06.399Z,98952.71
2023-02-17T17:11:38.641Z,98950.88
2023-02-17T17:14:10.842Z,98947.17
2023-02-17T17:16:48.216Z,98943.70
2023-02-17T17:19:20.603Z,98939.30
2023-02-17T17:21:53.009Z,98933.09
2023-02-17T17:24:25.485Z,98923.86
2023-02-17T17:26:57.824Z,98922.27
2023-02-17T17:29:30.280Z,98922.03
2023-02-17T17:32:02.527Z,98920.29
2023-02-17T17:34:34.762Z,98916.23
2023-02-17T17:37:07.367Z,98918.80
2023-02-17T17:39:40.176Z,98913.31
2023-02-17T17:42:13.779Z,98907.25
2023-02-17T17:44:45.984Z,98905.45
2023-02-17T17:47:29.342Z,98899.48
2023-02-17T17:50:02.702Z,98894.30
2023-02-17T17:52:35.076Z,98899.17
2023-02-17T17:55:09.778Z,98892.05
2023-02-17T17:57:41.051Z,98891.28
2023-02-17T18:00:19.316Z,98891.31
2023-02-17T18:02:51.529Z,98892.20
2023-02-17T18:05:23.904Z,98891.45
2023-02-17T18:07:56.559Z,98886.23
2023-02-17T18:10:28.929Z,98883.73
2023-02-17T18:13:01.636Z,98881.39
2023-02-17T18:15:34.018Z,98886.27
2023-02-17T18:18:06.834Z,98880.09
2023-02-17T18:20:39.005Z,98881.23
2023-02-17T18:23:11.206Z,98876.94
2023-02-17T18:25:43.734Z,98872.58
2023-02-17T18:28:15.979Z,98874.77
2023-02-17T18:30:48.388Z,98871.41
2023-02-17T18:33:20.674Z,98863.88
2023-02-17T18:35:52.861Z,98856.67
2023-02-17T18:38:25.312Z,98857.22
2023-02-17T18:40:57.540Z,98857.61
2023-02-17T18:43:29.994Z,98854.05
2023-02-17T18:46:02.442Z,98846.20
2023-02-17T18:48:34.754Z,98845.79
2023-02-17T18:51:10.361Z,98841.00
2023-02-17T18:53:43.490Z,98833.05
2023-02-17T18:56:20.071Z,98827.16
2023-02-17T18:58:55.325Z,98822.33
2023-02-17T19:01:30.167Z,98820.86
2023-02-17T19:04:04.962Z,98814.23
2023-02-17T19:06:37.308Z,98812.74
2023-02-17T19:09:09.578Z,98806.70
2023-02-17T19:11:41.874Z,98806.30
2023-02-17T19:14:14.124Z,98801.50
2023-02-17T19:16:46.398Z,98799.36
2023-02-17T19:19:18.781Z,98797.18
2023-02-17T19:21:50.930Z,98790.63
2023-02-17T19:24:23.177Z,98789.67
2023-02-17T19:26:55.675Z,98792.33
2023-02-17T19:29:27.971Z,98788.29
2023-02-17T19:32:01.376Z,98782.54
2023-02-17T19:34:33.792Z,98782.59
2023-02-17T19:37:06.397Z,98775.98
2023-02-17T19:39:38.705Z,98774.05
2023-02-17T19:42:10.919Z,98766.13
2023-02-17T19:44:43.163Z,98770.21
2023-02-17T19:47:15.500Z,98761.79
2023-02-17T19:49:47.953Z,98758.30
2023-02-17T19:52:21.147Z,98749.48
2023-02-17T19:54:53.353Z,98744.27
2023-02-17T19:57:25.514Z,98749.93
2023-02-17T19:59:57.838Z,98754.23
2023-02-17T20:02:30.194Z,98763.42
2023-02-17T20:05:02.614Z,98767.39
2023-02-17T20:07:34.789Z,98780.70
2023-02-17T20:10:10.878Z,98796.45
2023-02-17T20:12:43.086Z,98815.21
2023-02-17T20:15:15.298Z,98814.89
2023-02-17T20:17:47.555Z,98812.05
2023-02-17T20:20:19.970Z,98815.20
2023-02-17T20:22:52.677Z,98813.89
2023-02-17T20:25:24.847Z,98819.09
2023-02-17T20:27:56.968Z,98822.75
2023-02-17T20:30:29.239Z,98820.86
2023-02-17T20:33:01.660Z,98813.42
2023-02-17T20:35:35.515Z,98803.61
2023-02-17T20:38:09.244Z,98812.33
2023-02-17T20:40:41.385Z,98819.35
2023-02-17T20:43:13.735Z,98820.73
2023-02-17T20:45:46.595Z,98822.84
2023-02-17T20:48:19.304Z,98822.55
2023-02-17T20:50:51.598Z,98818.21
2023-02-17T20:53:23.821Z,98820.59
2023-02-17T20:55:56.042Z,98822.83
2023-02-17T20:58:28.202Z,98824.84
2023-02-17T21:01:00.325Z,98828.70
2023-02-17T21:03:35.702Z,98827.85
2023-02-17T21:06:20.414Z,98825.98
2023-02-17T21:08:55.968Z,98826.05
2023-02-17T21:11:28.377Z,98833.09
2023-02-17T21:14:00.705Z,98824.83
2023-02-17T21:16:34.082Z,98826.12
2023-02-17T21:19:06.702Z,98829.46
2023-02-17T21:21:39.257Z,98828.40
2023-02-17T21:24:12.147Z,98828.40
2023-02-17T21:26:44.713Z,98830.92
2023-02-17T21:29:17.163Z,98828.33
2023-02-17T21:31:49.539Z,98830.13
2023-02-17T21:34:21.906Z,98832.71
2023-02-17T21:36:54.162Z,98829.02
2023-02-17T21:39:26.354Z,98827.26
2023-02-17T21:41:58.643Z,98832.76
2023-02-17T21:44:48.656Z,98821.89
2023-02-17T21:47:21.871Z,98826.76
2023-02-17T21:49:56.113Z,98833.22
2023-02-17T21:52:28.412Z,98842.73
2023-02-17T21:55:01.186Z,98835.58
2023-02-17T21:57:33.409Z,98836.60
2023-02-17T22:00:08.964Z,98849.88
2023-02-17T22:02:44.444Z,98853.04
2023-02-17T22:05:17.225Z,98855.11
2023-02-17T22:07:52.398Z,98859.42
2023-02-17T22:10:24.771Z,98861.44
2023-02-17T22:12:57.072Z,98860.35
2023-02-17T22:15:29.390Z,98865.06
2023-02-17T22:18:02.148Z,98866.62
2023-02-17T22:20:35.858Z,98865.27
2023-02-17T22:23:08.095Z,98860.51
2023-02-17T22:25:44.258Z,98851.45
2023-02-17T22:28:16.886Z,98852.73
2023-02-17T22:30:54.328Z,98856.23
2023-02-17T22:33:26.581Z,98865.86
2023-02-17T22:36:04.300Z,98867.67
2023-02-17T22:38:37.212Z,98865.91
2023-02-17T22:41:12.370Z,98862.84
2023-02-17T22:43:46.082Z,98859.76
2023-02-17T22:46:20.048Z,98851.23
2023-02-17T22:48:53.719Z,98848.73
2023-02-17T22:51:28.345Z,98852.91
2023-02-17T22:54:01.187Z,98848.36
2023-02-17T22:56:33.753Z,98859.31
2023-02-17T22:59:06.409Z,98862.20
2023-02-17T23:01:39.601Z,98863.83
2023-02-17T23:13:20.126Z,98852.38
2023-02-17T23:15:53.322Z,98850.02
2023-02-17T23:18:25.642Z,98849.31
2023-02-17T23:20:57.864Z,98853.56
2023-02-17T23:23:30.435Z,98855.07
2023-02-17T23:26:03.095Z,98849.83
2023-02-17T23:28:35.615Z,98857.80
2023-02-17T23:31:12.200Z,98854.74
2023-02-17T23:33:46.692Z,98854.67
2023-02-17T23:36:19.552Z,98853.98
2023-02-17T23:38:52.976Z,98851.27
2023-02-17T23:41:25.835Z,98854.35
2023-02-17T23:43:58.136Z,98858.28
2023-02-17T23:46:30.851Z,98854.17
2023-02-17T23:49:03.149Z,98853.61
2023-02-17T23:51:35.514Z,98850.09
2023-02-17T23:54:07.828Z,98850.55
2023-02-17T23:56:40.917Z,98854.63
2023-02-17T23:59:13.453Z,98848.48
